Time;durP1;ratioP1;P1;durP2;ratioP2;P2;SDS_P1;SDS_P2;PMS_P1;PMS_P2;Temp;Humidity;BMP_temperature;BMP_pressure;BME280_temperature;BME280_humidity;BME280_pressure;Samples;Min_cycle;Max_cycle;Signal;HPM_P1;HPM_P2
2023/09/05 00:00:10;;;;;;;3.67;2.10;;;19.90;81.20;;;;;;5015325;28;20018;-80
2023/09/05 00:02:43;;;;;;;2.63;1.70;;;19.80;81.20;;;;;;5030521;28;20025;-82
2023/09/05 00:05:09;;;;;;;2.38;1.83;;;19.90;80.50;;;;;;5026136;28;20057;-79
2023/09/05 00:07:36;;;;;;;4.18;2.05;;;19.90;80.60;;;;;;5035354;28;20041;-80
2023/09/05 00:10:06;;;;;;;3.65;2.03;;;19.80;80.80;;;;;;5032460;28;20112;-78
2023/09/05 00:12:32;;;;;;;3.40;2.10;;;19.80;80.60;;;;;;5031708;28;20048;-79
2023/09/05 00:15:02;;;;;;;2.80;1.85;;;19.80;80.40;;;;;;5031015;28;20367;-80
2023/09/05 00:17:31;;;;;;;7.90;1.95;;;19.80;80.20;;;;;;5032678;28;20087;-79
2023/09/05 00:20:00;;;;;;;3.40;2.10;;;19.70;80.50;;;;;;5031975;28;20051;-80
2023/09/05 00:22:26;;;;;;;3.03;2.10;;;19.70;80.80;;;;;;5036093;28;20032;-79
2023/09/05 00:24:52;;;;;;;4.95;2.20;;;19.70;80.90;;;;;;5034289;28;20025;-82
2023/09/05 00:27:23;;;;;;;6.93;1.90;;;19.60;81.00;;;;;;5035586;28;20188;-80
2023/09/05 00:29:49;;;;;;;4.50;2.00;;;19.60;81.20;;;;;;5036151;28;20105;-79
2023/09/05 00:32:21;;;;;;;2.53;1.83;;;19.60;81.50;;;;;;5030314;28;20051;-82
2023/09/05 00:34:49;;;;;;;3.47;2.10;;;19.50;82.10;;;;;;5031982;28;20021;-80
2023/09/05 00:37:24;;;;;;;3.08;1.90;;;19.60;82.50;;;;;;5030728;28;20106;-80
2023/09/05 00:39:50;;;;;;;2.85;1.65;;;19.50;82.70;;;;;;5035925;28;20472;-79
2023/09/05 00:42:17;;;;;;;3.40;1.80;;;19.50;83.10;;;;;;5042062;28;20030;-80
2023/09/05 00:44:46;;;;;;;3.38;1.90;;;19.50;83.20;;;;;;5033170;28;20546;-78
2023/09/05 00:47:16;;;;;;;2.95;1.70;;;19.40;83.70;;;;;;5034883;28;20143;-80
2023/09/05 00:49:48;;;;;;;3.85;2.13;;;19.40;84.10;;;;;;5039187;28;20034;-78
2023/09/05 00:52:18;;;;;;;2.53;1.83;;;19.40;83.90;;;;;;5056520;28;20444;-79
2023/09/05 00:54:51;;;;;;;3.60;1.98;;;19.40;84.10;;;;;;5038632;28;20025;-80
2023/09/05 00:57:20;;;;;;;4.35;1.90;;;19.30;83.40;;;;;;5050753;28;20052;-80
2023/09/05 00:59:48;;;;;;;4.63;1.60;;;19.30;83.70;;;;;;5037091;28;20030;-78
2023/09/05 01:02:14;;;;;;;3.13;2.03;;;19.30;83.60;;;;;;5036161;28;20476;-78
2023/09/05 01:04:43;;;;;;;3.63;1.50;;;19.30;83.60;;;;;;5038206;28;20108;-78
2023/09/05 01:07:40;;;;;;;3.70;1.60;;;19.30;83.30;;;;;;5037188;28;20029;-79
2023/09/05 01:10:21;;;;;;;3.92;1.90;;;19.40;83.30;;;;;;5032290;28;20076;-81
2023/09/05 01:12:52;;;;;;;3.03;1.80;;;19.40;83.40;;;;;;5034521;28;20026;-81
2023/09/05 01:15:24;;;;;;;3.08;1.58;;;19.30;83.50;;;;;;5035475;28;20050;-79
2023/09/05 01:17:54;;;;;;;2.28;1.65;;;19.30;83.20;;;;;;5033643;28;20511;-79
2023/09/05 01:20:35;;;;;;;3.15;1.60;;;19.30;83.20;;;;;;5031958;28;20021;-80
2023/09/05 01:23:07;;;;;;;3.58;1.80;;;19.30;83.30;;;;;;5034113;28;20037;-81
2023/09/05 01:25:36;;;;;;;2.05;1.35;;;19.30;83.00;;;;;;5034595;28;20025;-80
2023/09/05 01:28:04;;;;;;;2.28;1.45;;;19.30;83.10;;;;;;5031292;28;20032;-81
2023/09/05 01:30:29;;;;;;;4.93;1.77;;;19.30;83.10;;;;;;5045850;28;20226;-78
2023/09/05 01:32:58;;;;;;;3.55;1.70;;;19.30;83.20;;;;;;5031584;28;20496;-80
2023/09/05 01:35:23;;;;;;;1.98;1.33;;;19.40;83.00;;;;;;5036698;28;20079;-78
2023/09/05 01:37:52;;;;;;;2.30;1.80;;;19.40;83.10;;;;;;5034872;28;20022;-75
2023/09/05 01:40:27;;;;;;;2.42;1.52;;;19.40;82.90;;;;;;5032350;28;20075;-78
2023/09/05 01:42:52;;;;;;;3.38;1.77;;;19.40;83.00;;;;;;5031367;28;20029;-77
2023/09/05 01:45:18;;;;;;;4.28;1.55;;;19.40;83.00;;;;;;5033601;28;20041;-81
2023/09/05 01:47:43;;;;;;;2.90;1.58;;;19.40;83.10;;;;;;5030895;28;20362;-79
2023/09/05 01:50:09;;;;;;;2.17;1.38;;;19.40;82.80;;;;;;5032752;28;20037;-81
2023/09/05 01:52:41;;;;;;;3.90;2.00;;;19.40;82.70;;;;;;5032260;28;20030;-81
2023/09/05 01:55:09;;;;;;;2.80;1.83;;;19.50;82.90;;;;;;5050295;28;20480;-80
2023/09/05 01:57:35;;;;;;;2.65;1.60;;;19.40;82.70;;;;;;5030264;28;20032;-80
2023/09/05 02:00:01;;;;;;;2.75;1.92;;;19.40;82.90;;;;;;5029274;28;21209;-76
2023/09/05 02:02:26;;;;;;;2.80;1.40;;;19.40;83.10;;;;;;5038009;28;20022;-80
2023/09/05 02:04:55;;;;;;;4.07;1.70;;;19.40;83.10;;;;;;5029252;28;20454;-80
2023/09/05 02:07:20;;;;;;;3.50;1.52;;;19.50;83.20;;;;;;5035882;28;20049;-80
2023/09/05 02:09:46;;;;;;;2.05;1.50;;;19.40;83.60;;;;;;5034195;28;20040;-78
2023/09/05 02:12:24;;;;;;;3.47;1.70;;;19.40;83.50;;;;;;5031186;28;20021;-79
2023/09/05 02:14:52;;;;;;;2.50;1.75;;;19.40;83.50;;;;;;5047626;28;20030;-80
2023/09/05 02:17:20;;;;;;;1.88;1.20;;;19.40;83.60;;;;;;5033234;28;20029;-80
2023/09/05 02:19:46;;;;;;;2.20;1.42;;;19.40;83.70;;;;;;5034486;28;20064;-79
2023/09/05 02:22:12;;;;;;;2.63;1.55;;;19.40;83.90;;;;;;5031745;28;20038;-82
2023/09/05 02:24:37;;;;;;;2.83;1.80;;;19.40;84.10;;;;;;5029360;28;20013;-80
2023/09/05 02:27:06;;;;;;;2.65;1.55;;;19.40;83.80;;;;;;5036151;28;20557;-81
2023/09/05 02:29:32;;;;;;;2.72;1.50;;;19.40;83.90;;;;;;5034819;28;20507;-80
2023/09/05 02:31:57;;;;;;;2.65;1.67;;;19.40;83.90;;;;;;5033995;28;20045;-79
2023/09/05 02:34:26;;;;;;;3.45;1.60;;;19.40;84.00;;;;;;5033039;28;20079;-77
2023/09/05 02:36:54;;;;;;;3.05;1.60;;;19.50;83.80;;;;;;5034655;28;20044;-78
2023/09/05 02:39:20;;;;;;;3.08;1.70;;;19.50;84.30;;;;;;5033046;28;20105;-80
2023/09/05 02:41:45;;;;;;;3.25;1.88;;;19.50;83.70;;;;;;5033270;28;20021;-81
2023/09/05 02:44:11;;;;;;;2.58;1.45;;;19.50;83.80;;;;;;5032547;28;20017;-81
2023/09/05 02:46:44;;;;;;;4.15;1.80;;;19.50;83.50;;;;;;5034011;28;20017;-80
2023/09/05 02:49:13;;;;;;;4.07;1.50;;;19.60;83.80;;;;;;5032738;28;20103;-78
2023/09/05 02:51:41;;;;;;;4.32;1.70;;;19.50;83.80;;;;;;5030700;28;20081;-78
2023/09/05 02:54:07;;;;;;;3.17;1.50;;;19.60;83.90;;;;;;5033066;28;20033;-80
2023/09/05 02:56:32;;;;;;;2.25;1.55;;;19.50;84.00;;;;;;5032037;28;20033;-80
2023/09/05 02:58:58;;;;;;;3.08;1.60;;;19.60;84.10;;;;;;5025599;28;20423;-78
2023/09/05 03:01:24;;;;;;;3.47;1.65;;;19.50;83.70;;;;;;5030356;28;20037;-80
2023/09/05 03:03:49;;;;;;;2.92;1.92;;;19.60;84.10;;;;;;5032994;28;20041;-78
2023/09/05 03:06:18;;;;;;;3.75;1.63;;;19.50;84.00;;;;;;5034324;28;20032;-75
2023/09/05 03:08:46;;;;;;;1.88;1.30;;;19.50;84.50;;;;;;5027773;28;20112;-77
2023/09/05 03:11:19;;;;;;;1.85;1.40;;;19.50;84.80;;;;;;5029804;28;20022;-78
2023/09/05 03:13:46;;;;;;;3.03;1.83;;;19.40;84.80;;;;;;5032739;28;20021;-77
2023/09/05 03:16:12;;;;;;;2.45;1.38;;;19.40;85.30;;;;;;5031556;28;20029;-76
2023/09/05 03:18:38;;;;;;;2.40;1.60;;;19.30;85.20;;;;;;5030149;28;20018;-77
2023/09/05 03:21:10;;;;;;;2.42;1.55;;;19.30;85.40;;;;;;5028697;28;20109;-77
2023/09/05 03:23:39;;;;;;;3.25;1.75;;;19.30;86.00;;;;;;5032220;28;20060;-79
2023/09/05 03:26:04;;;;;;;3.45;1.73;;;19.20;86.30;;;;;;5031169;28;20041;-78
2023/09/05 03:28:44;;;;;;;3.22;1.63;;;19.20;86.80;;;;;;5043078;28;20029;-79
2023/09/05 03:31:10;;;;;;;4.57;2.10;;;19.10;87.60;;;;;;5030106;28;20064;-79
2023/09/05 03:33:36;;;;;;;3.83;1.58;;;19.00;88.10;;;;;;5027423;28;20092;-79
2023/09/05 03:36:05;;;;;;;2.95;1.40;;;19.00;88.40;;;;;;5032308;28;20040;-79
2023/09/05 03:38:32;;;;;;;4.45;1.58;;;18.90;88.90;;;;;;5030804;28;20017;-80
2023/09/05 03:40:58;;;;;;;5.82;1.92;;;18.80;89.20;;;;;;5026130;28;20026;-76
2023/09/05 03:43:23;;;;;;;3.80;1.73;;;18.80;89.50;;;;;;5042862;28;20021;-75
2023/09/05 03:45:49;;;;;;;3.97;2.00;;;18.70;89.90;;;;;;5030458;28;20705;-79
2023/09/05 03:48:15;;;;;;;3.17;1.65;;;18.60;90.00;;;;;;5030915;28;20057;-78
2023/09/05 03:50:41;;;;;;;2.53;1.77;;;18.60;90.20;;;;;;5029842;28;20026;-79
2023/09/05 03:53:07;;;;;;;2.05;1.63;;;18.50;90.40;;;;;;5032076;28;20035;-79
2023/09/05 03:55:34;;;;;;;3.70;2.00;;;18.50;90.50;;;;;;5035226;28;20100;-76
2023/09/05 03:58:02;;;;;;;3.50;2.20;;;18.40;90.70;;;;;;5032172;28;20392;-77
2023/09/05 04:00:29;;;;;;;2.92;1.80;;;18.30;90.90;;;;;;5028517;28;20018;-77
2023/09/05 04:02:58;;;;;;;3.10;2.20;;;18.30;91.10;;;;;;5034803;28;20361;-77
2023/09/05 04:05:24;;;;;;;3.53;1.70;;;18.20;91.20;;;;;;5033589;28;20064;-76
2023/09/05 04:07:52;;;;;;;4.28;2.13;;;18.20;91.30;;;;;;5046452;28;20040;-78
2023/09/05 04:10:18;;;;;;;4.50;2.30;;;18.10;91.50;;;;;;5030610;28;20040;-76
2023/09/05 04:12:50;;;;;;;3.25;1.80;;;18.00;91.70;;;;;;5033840;28;20040;-79
2023/09/05 04:15:25;;;;;;;4.18;2.22;;;18.00;91.90;;;;;;5032619;28;20034;-77
2023/09/05 04:17:51;;;;;;;4.35;2.08;;;18.00;92.00;;;;;;5036507;28;20024;-77
2023/09/05 04:20:31;;;;;;;4.07;1.92;;;17.90;92.00;;;;;;5027630;28;20492;-80
2023/09/05 04:22:57;;;;;;;3.50;1.83;;;17.90;92.40;;;;;;5035737;28;20580;-78
2023/09/05 04:25:32;;;;;;;4.07;2.13;;;17.80;92.60;;;;;;5035857;28;20115;-80
2023/09/05 04:28:01;;;;;;;3.45;1.90;;;17.80;92.70;;;;;;5034938;28;20091;-80
2023/09/05 04:30:26;;;;;;;3.67;1.95;;;17.70;92.80;;;;;;5034354;28;20112;-80
2023/09/05 04:32:53;;;;;;;5.03;2.80;;;17.70;93.20;;;;;;5034984;28;20080;-78
2023/09/05 04:35:19;;;;;;;5.85;2.30;;;17.70;93.00;;;;;;5032652;28;20032;-80
2023/09/05 04:37:44;;;;;;;6.40;2.22;;;17.60;93.40;;;;;;5034831;28;20487;-80
2023/09/05 04:40:10;;;;;;;4.68;2.03;;;17.60;93.30;;;;;;5030972;28;20519;-79
2023/09/05 04:42:36;;;;;;;3.78;2.25;;;17.50;93.40;;;;;;5033524;28;20022;-79
2023/09/05 04:45:02;;;;;;;5.13;2.30;;;17.50;93.40;;;;;;5035858;28;20037;-79
2023/09/05 04:47:29;;;;;;;5.07;2.70;;;17.50;93.50;;;;;;5038174;28;20022;-78
2023/09/05 04:49:58;;;;;;;4.45;2.92;;;17.50;93.60;;;;;;5035314;28;20099;-78
2023/09/05 04:52:26;;;;;;;4.03;2.53;;;17.40;93.60;;;;;;5034735;28;20484;-78
2023/09/05 04:54:53;;;;;;;3.85;2.25;;;17.40;93.60;;;;;;5033502;28;20052;-81
2023/09/05 04:57:22;;;;;;;5.10;2.33;;;17.40;93.70;;;;;;5028773;28;20025;-78
2023/09/05 04:59:57;;;;;;;8.68;3.05;;;17.30;93.70;;;;;;5030338;28;20029;-80
2023/09/05 05:02:27;;;;;;;5.38;2.03;;;17.30;93.80;;;;;;5037363;28;20350;-78
2023/09/05 05:04:58;;;;;;;5.32;2.53;;;17.30;93.90;;;;;;5036491;28;20075;-80
2023/09/05 05:07:24;;;;;;;5.32;2.30;;;17.30;94.00;;;;;;5032548;28;20105;-78
2023/09/05 05:09:50;;;;;;;4.03;2.58;;;17.30;94.00;;;;;;5036609;28;20064;-80
2023/09/05 05:12:24;;;;;;;6.00;2.72;;;17.30;94.20;;;;;;5030903;28;20479;-79
2023/09/05 05:14:52;;;;;;;5.93;2.78;;;17.30;94.20;;;;;;5033356;28;20025;-81
2023/09/05 05:17:21;;;;;;;4.15;2.28;;;17.30;94.20;;;;;;5030163;28;20565;-77
2023/09/05 05:19:47;;;;;;;3.22;2.50;;;17.30;94.30;;;;;;5035322;28;20026;-80
2023/09/05 05:22:12;;;;;;;3.90;2.72;;;17.30;94.30;;;;;;5035536;28;20077;-79
2023/09/05 05:24:44;;;;;;;7.55;2.72;;;17.30;94.30;;;;;;5033740;28;20411;-78
2023/09/05 05:27:15;;;;;;;4.95;2.60;;;17.40;94.40;;;;;;5031768;28;20030;-78
2023/09/05 05:29:44;;;;;;;3.92;2.40;;;17.40;94.40;;;;;;5032622;28;20036;-75
2023/09/05 05:32:16;;;;;;;5.03;2.72;;;17.40;94.40;;;;;;5029277;28;20026;-79
2023/09/05 05:34:48;;;;;;;8.05;3.40;;;17.50;94.50;;;;;;5030007;28;20060;-78
2023/09/05 05:37:17;;;;;;;8.13;3.25;;;17.50;94.50;;;;;;5031609;28;20072;-82
2023/09/05 05:39:58;;;;;;;6.25;3.30;;;17.60;94.50;;;;;;5030463;28;20030;-78
2023/09/05 05:42:27;;;;;;;10.52;3.67;;;17.60;94.60;;;;;;5030536;28;20025;-79
2023/09/05 05:44:52;;;;;;;7.35;3.42;;;17.60;94.60;;;;;;5035967;28;20029;-81
2023/09/05 05:47:18;;;;;;;11.98;3.47;;;17.70;94.50;;;;;;5033951;28;20095;-78
2023/09/05 05:49:44;;;;;;;6.45;3.58;;;17.80;94.40;;;;;;5028153;28;20040;-78
2023/09/05 05:52:18;;;;;;;7.20;3.28;;;17.80;94.40;;;;;;5047256;28;20081;-80
2023/09/05 05:54:44;;;;;;;6.70;2.90;;;17.90;94.30;;;;;;5034334;28;20032;-79
2023/09/05 05:57:09;;;;;;;8.18;4.13;;;17.90;94.30;;;;;;5033188;28;20480;-77
2023/09/05 05:59:35;;;;;;;7.55;3.38;;;18.00;94.30;;;;;;5037563;28;20455;-80
2023/09/05 06:02:01;;;;;;;6.63;3.20;;;18.10;94.30;;;;;;5029677;28;20029;-79
2023/09/05 06:04:29;;;;;;;7.32;3.67;;;18.10;94.10;;;;;;5025887;28;20029;-77
2023/09/05 06:06:55;;;;;;;7.20;3.72;;;18.10;94.10;;;;;;5031722;28;20487;-76
2023/09/05 06:09:20;;;;;;;7.38;3.30;;;18.10;94.10;;;;;;5032652;28;20037;-75
2023/09/05 06:11:46;;;;;;;8.05;3.10;;;18.20;94.10;;;;;;5024722;28;20132;-75
2023/09/05 06:14:15;;;;;;;6.05;3.08;;;18.30;94.20;;;;;;5025714;28;20030;-74
2023/09/05 06:16:41;;;;;;;6.93;2.97;;;18.30;93.90;;;;;;5031836;28;20040;-74
2023/09/05 06:19:08;;;;;;;5.60;2.72;;;18.50;94.00;;;;;;5029702;28;20022;-76
2023/09/05 06:21:34;;;;;;;6.35;3.15;;;18.50;93.80;;;;;;5033535;28;20464;-75
2023/09/05 06:24:13;;;;;;;6.55;3.15;;;18.60;93.50;;;;;;5034151;28;20025;-75
2023/09/05 06:26:47;;;;;;;7.50;2.85;;;18.70;93.40;;;;;;5032989;28;20365;-75
2023/09/05 06:29:13;;;;;;;6.85;2.13;;;18.80;93.20;;;;;;5036445;28;20136;-75
2023/09/05 06:31:38;;;;;;;5.82;2.30;;;18.80;92.70;;;;;;5038399;28;20018;-74
2023/09/05 06:34:07;;;;;;;6.40;2.10;;;18.90;92.80;;;;;;5023990;28;20018;-76
2023/09/05 06:36:32;;;;;;;3.83;2.10;;;19.00;92.60;;;;;;5027665;28;20461;-74
2023/09/05 06:39:03;;;;;;;4.03;2.00;;;19.10;92.60;;;;;;5027592;28;20025;-76
2023/09/05 06:41:31;;;;;;;3.97;2.10;;;19.20;92.50;;;;;;5027904;28;20021;-74
2023/09/05 06:44:00;;;;;;;5.13;2.05;;;19.30;92.10;;;;;;5038949;28;20025;-74
2023/09/05 06:46:26;;;;;;;4.03;1.85;;;19.40;91.70;;;;;;5019915;28;20033;-80
2023/09/05 06:48:57;;;;;;;13.95;2.50;;;19.40;91.70;;;;;;5034550;28;20022;-81
2023/09/05 06:51:30;;;;;;;3.55;1.98;;;19.50;91.70;;;;;;5028254;28;20077;-79
2023/09/05 06:53:59;;;;;;;2.65;1.73;;;19.50;91.00;;;;;;5032027;28;20069;-81
2023/09/05 06:56:27;;;;;;;5.75;2.03;;;19.60;91.00;;;;;;5031403;28;20030;-80
2023/09/05 06:58:53;;;;;;;2.45;1.70;;;19.60;91.00;;;;;;5033853;28;20482;-81
2023/09/05 07:01:19;;;;;;;9.40;2.10;;;19.70;91.10;;;;;;5032118;28;20038;-82
2023/09/05 07:03:45;;;;;;;2.45;1.52;;;19.70;91.00;;;;;;5032539;28;20063;-83
2023/09/05 07:06:18;;;;;;;6.03;2.55;;;19.70;91.00;;;;;;5034689;28;20021;-81
2023/09/05 07:08:47;;;;;;;2.90;1.85;;;19.80;91.00;;;;;;5030277;28;20044;-80
2023/09/05 07:11:19;;;;;;;2.33;1.70;;;19.80;91.20;;;;;;5029461;28;20056;-81
2023/09/05 07:13:48;;;;;;;3.30;1.63;;;19.90;91.10;;;;;;5030482;28;20443;-80
2023/09/05 07:16:16;;;;;;;4.65;1.77;;;20.00;90.60;;;;;;5031002;28;20037;-81
2023/09/05 07:18:42;;;;;;;2.47;1.25;;;20.00;90.50;;;;;;5028450;28;20079;-83
2023/09/05 07:21:07;;;;;;;3.70;1.80;;;20.10;90.50;;;;;;5029418;28;20108;-83
2023/09/05 07:23:36;;;;;;;2.30;1.88;;;20.10;90.90;;;;;;5031644;28;20564;-81
2023/09/05 07:26:09;;;;;;;2.92;1.88;;;20.20;90.90;;;;;;5030968;28;20033;-82
2023/09/05 07:28:35;;;;;;;3.40;1.80;;;20.20;90.70;;;;;;5035680;28;20387;-82
2023/09/05 07:31:04;;;;;;;3.60;1.65;;;20.30;90.40;;;;;;5032662;28;20021;-81
2023/09/05 07:33:30;;;;;;;1.95;1.40;;;20.30;90.20;;;;;;5032654;28;20459;-81
2023/09/05 07:35:55;;;;;;;3.88;1.67;;;20.40;90.20;;;;;;5034043;28;20057;-82
2023/09/05 07:38:21;;;;;;;2.60;1.50;;;20.40;90.30;;;;;;5032487;28;20029;-83
2023/09/05 07:41:09;;;;;;;2.33;1.73;;;20.50;90.20;;;;;;5034382;28;20555;-83
2023/09/05 07:43:38;;;;;;;2.88;1.63;;;20.50;90.20;;;;;;5034525;28;20041;-82
2023/09/05 07:46:06;;;;;;;3.70;1.70;;;20.60;90.40;;;;;;5033998;28;20083;-83
2023/09/05 07:48:32;;;;;;;2.05;1.60;;;20.70;90.40;;;;;;5033217;28;20033;-82
2023/09/05 07:51:03;;;;;;;2.88;1.65;;;20.70;90.20;;;;;;5038507;28;20040;-81
2023/09/05 07:53:34;;;;;;;3.38;1.60;;;20.80;90.30;;;;;;5036978;28;20037;-82
2023/09/05 07:56:04;;;;;;;3.17;1.70;;;20.90;90.30;;;;;;5035215;28;20034;-85
2023/09/05 07:58:30;;;;;;;3.42;1.63;;;20.90;90.30;;;;;;5034700;28;20033;-83
2023/09/05 08:00:56;;;;;;;2.80;2.50;;;21.00;90.40;;;;;;5028857;28;20037;-81
2023/09/05 08:03:27;;;;;;;3.42;2.10;;;21.00;90.50;;;;;;5032292;28;20117;-79
2023/09/05 08:05:56;;;;;;;2.90;1.92;;;21.10;90.00;;;;;;5045243;28;20135;-80
2023/09/05 08:08:22;;;;;;;2.50;2.00;;;21.10;89.50;;;;;;5034480;28;20032;-79
2023/09/05 08:10:52;;;;;;;4.00;1.88;;;21.20;89.50;;;;;;5029499;28;20018;-80
2023/09/05 08:13:24;;;;;;;2.67;1.60;;;21.20;90.00;;;;;;5029773;28;20510;-80
2023/09/05 08:15:50;;;;;;;3.80;1.70;;;21.30;89.30;;;;;;5031082;28;20045;-80
2023/09/05 08:18:19;;;;;;;2.72;1.40;;;21.30;89.00;;;;;;5031822;28;20056;-79
2023/09/05 08:20:46;;;;;;;2.88;1.70;;;21.40;89.20;;;;;;5031545;28;20049;-80
2023/09/05 08:23:12;;;;;;;2.40;1.70;;;21.40;89.00;;;;;;5034331;28;20025;-79
2023/09/05 08:25:45;;;;;;;3.35;1.88;;;21.50;89.20;;;;;;5038768;28;20027;-79
2023/09/05 08:28:11;;;;;;;3.25;1.83;;;21.50;89.50;;;;;;5034924;28;20439;-79
2023/09/05 08:30:37;;;;;;;2.53;1.58;;;21.60;89.50;;;;;;5045714;28;20028;-79
2023/09/05 08:33:03;;;;;;;3.78;1.65;;;21.60;89.50;;;;;;5035765;28;20034;-80
2023/09/05 08:35:29;;;;;;;3.47;1.70;;;21.70;89.10;;;;;;5037868;28;20052;-80
2023/09/05 08:37:55;;;;;;;2.28;1.15;;;21.80;88.90;;;;;;5039015;28;20026;-79
2023/09/05 08:40:22;;;;;;;4.03;1.67;;;21.90;88.40;;;;;;5036202;28;20022;-80
2023/09/05 08:42:50;;;;;;;2.55;1.25;;;21.90;88.00;;;;;;5042057;28;20112;-79
2023/09/05 08:45:22;;;;;;;1.98;1.67;;;22.00;87.80;;;;;;5037631;28;20031;-83
2023/09/05 08:47:47;;;;;;;4.07;2.00;;;22.10;87.70;;;;;;5028065;28;20060;-81
2023/09/05 08:50:13;;;;;;;1.70;1.40;;;22.10;88.20;;;;;;5045062;28;20029;-78
2023/09/05 08:52:42;;;;;;;2.20;1.58;;;22.20;87.90;;;;;;5036764;28;20091;-77
2023/09/05 08:55:09;;;;;;;5.97;2.17;;;22.20;87.70;;;;;;5043779;28;20033;-76
2023/09/05 08:57:38;;;;;;;3.60;1.60;;;22.40;88.50;;;;;;5024676;28;20021;-77
2023/09/05 09:00:06;;;;;;;2.55;1.45;;;22.50;88.20;;;;;;5026931;28;20040;-81
2023/09/05 09:02:32;;;;;;;2.22;1.48;;;22.60;88.10;;;;;;5052132;28;20045;-81
2023/09/05 09:04:58;;;;;;;5.10;1.83;;;22.60;87.50;;;;;;5031263;28;20049;-81
2023/09/05 09:07:29;;;;;;;2.20;1.40;;;22.70;86.60;;;;;;5033937;28;20029;-80
2023/09/05 09:09:55;;;;;;;2.10;1.52;;;22.70;86.70;;;;;;5033956;28;20137;-79
2023/09/05 09:12:32;;;;;;;2.03;1.35;;;22.70;86.50;;;;;;5034199;28;20025;-81
2023/09/05 09:15:13;;;;;;;2.22;1.27;;;22.80;86.10;;;;;;5051855;28;20041;-82
2023/09/05 09:17:45;;;;;;;3.40;1.63;;;22.80;85.10;;;;;;5033316;28;20010;-82
2023/09/05 09:20:12;;;;;;;3.38;1.52;;;22.90;85.20;;;;;;5028240;28;20057;-82
2023/09/05 09:22:39;;;;;;;3.45;1.80;;;23.00;85.00;;;;;;5035136;28;20025;-85
2023/09/05 09:25:14;;;;;;;2.85;1.67;;;23.00;85.20;;;;;;5023574;28;20583;-80
2023/09/05 09:27:44;;;;;;;1.80;1.38;;;23.10;85.90;;;;;;5027635;28;20117;-80
2023/09/05 09:30:20;;;;;;;2.22;1.50;;;23.20;84.60;;;;;;5029251;28;20040;-79
2023/09/05 09:32:52;;;;;;;2.88;1.80;;;23.20;85.00;;;;;;5030941;28;20029;-77
2023/09/05 09:35:21;;;;;;;2.33;1.50;;;23.20;84.30;;;;;;5035843;28;20029;-79
2023/09/05 09:37:52;;;;;;;3.38;1.65;;;23.30;84.90;;;;;;5031295;28;20080;-77
2023/09/05 09:40:20;;;;;;;3.20;1.20;;;23.30;84.80;;;;;;5036989;28;20076;-78
2023/09/05 09:42:52;;;;;;;2.72;1.50;;;23.40;84.80;;;;;;5041557;28;20049;-79
2023/09/05 09:45:25;;;;;;;3.05;1.65;;;23.40;84.60;;;;;;5050320;28;20018;-80
2023/09/05 09:47:57;;;;;;;3.03;1.48;;;23.50;85.10;;;;;;5039025;28;20044;-74
2023/09/05 09:50:23;;;;;;;2.33;1.40;;;23.50;84.20;;;;;;5033251;28;20489;-80
2023/09/05 09:52:58;;;;;;;3.33;1.35;;;23.60;84.10;;;;;;5036061;28;20088;-79
2023/09/05 09:55:27;;;;;;;1.50;1.10;;;23.60;82.90;;;;;;5042583;28;20083;-80
2023/09/05 09:58:01;;;;;;;3.50;1.30;;;23.60;82.10;;;;;;5055426;28;20460;-79
2023/09/05 10:00:32;;;;;;;1.92;1.20;;;23.70;81.80;;;;;;5052829;28;20025;-78
2023/09/05 10:03:08;;;;;;;2.00;1.38;;;23.70;82.50;;;;;;5035126;28;20056;-80
2023/09/05 10:05:44;;;;;;;1.80;1.38;;;23.70;82.60;;;;;;5036395;28;20096;-79
2023/09/05 10:08:11;;;;;;;1.83;1.30;;;23.80;82.10;;;;;;5037909;28;20484;-81
2023/09/05 10:10:41;;;;;;;1.48;1.05;;;23.80;81.70;;;;;;5039140;28;20487;-81
2023/09/05 10:13:09;;;;;;;1.98;1.30;;;23.80;81.50;;;;;;5038123;28;20056;-81
2023/09/05 10:15:41;;;;;;;2.90;1.40;;;23.90;81.70;;;;;;5057254;28;20094;-79
2023/09/05 10:18:10;;;;;;;2.45;1.20;;;23.90;81.40;;;;;;5039088;28;20069;-81
2023/09/05 10:20:43;;;;;;;2.00;1.27;;;24.00;81.60;;;;;;5036148;28;21122;-79
2023/09/05 10:23:17;;;;;;;4.50;1.20;;;24.00;81.50;;;;;;5036105;28;20049;-80
2023/09/05 10:25:51;;;;;;;3.50;1.20;;;24.00;81.20;;;;;;5051859;28;20075;-79
2023/09/05 10:28:43;;;;;;;1.27;1.10;;;24.10;81.80;;;;;;5038720;28;20033;-79
2023/09/05 10:31:19;;;;;;;1.95;1.27;;;24.10;81.20;;;;;;5033401;28;20120;-80
2023/09/05 10:33:45;;;;;;;1.65;1.25;;;24.20;79.40;;;;;;5037339;28;20038;-80
2023/09/05 10:36:49;;;;;;;2.17;1.50;;;24.20;79.10;;;;;;5038354;28;20056;-80
2023/09/05 10:39:27;;;;;;;1.35;1.20;;;24.30;78.90;;;;;;5033915;28;20076;-79
2023/09/05 10:41:53;;;;;;;1.40;1.02;;;24.40;78.70;;;;;;5035309;28;20022;-81
2023/09/05 10:44:24;;;;;;;2.60;1.52;;;24.40;78.00;;;;;;5031903;28;20051;-82
2023/09/05 10:46:53;;;;;;;3.28;2.22;;;24.50;78.60;;;;;;5046078;28;20067;-79
2023/09/05 10:49:18;;;;;;;1.80;1.30;;;24.50;78.50;;;;;;5036558;28;20109;-77
2023/09/05 10:52:22;;;;;;;1.60;1.25;;;24.60;78.20;;;;;;5032583;28;20095;-77
2023/09/05 10:54:48;;;;;;;1.55;1.00;;;24.60;78.30;;;;;;4961671;28;20038;-77
2023/09/05 10:57:34;;;;;;;3.88;1.35;;;24.60;77.90;;;;;;4972148;28;20039;-80
2023/09/05 11:00:38;;;;;;;2.95;1.10;;;24.70;77.00;;;;;;5009252;28;20033;-79
2023/09/05 11:03:13;;;;;;;1.17;1.00;;;24.70;77.00;;;;;;5037368;28;20037;-79
2023/09/05 11:05:42;;;;;;;3.10;1.42;;;24.80;76.90;;;;;;5033574;28;20504;-78
2023/09/05 11:08:27;;;;;;;2.40;1.42;;;24.80;76.40;;;;;;5034268;28;20040;-79
2023/09/05 11:10:55;;;;;;;1.45;1.15;;;24.80;77.50;;;;;;5029251;28;20036;-79
2023/09/05 11:13:23;;;;;;;1.98;1.50;;;24.90;77.70;;;;;;5030509;28;20038;-79
2023/09/05 11:15:58;;;;;;;1.77;1.23;;;24.90;78.10;;;;;;5034939;28;20022;-80
2023/09/05 11:18:23;;;;;;;2.72;1.10;;;24.90;77.80;;;;;;5031926;28;20064;-79
2023/09/05 11:20:49;;;;;;;1.58;1.10;;;24.90;78.00;;;;;;5034128;28;20021;-78
2023/09/05 11:23:27;;;;;;;3.15;1.30;;;24.90;77.80;;;;;;5057514;28;20032;-79
2023/09/05 11:26:06;;;;;;;3.70;1.13;;;25.00;77.70;;;;;;5035439;28;20030;-78
2023/09/05 11:28:32;;;;;;;2.95;1.02;;;25.00;78.00;;;;;;5032109;28;20044;-78
2023/09/05 11:30:59;;;;;;;3.25;1.00;;;25.00;78.50;;;;;;5033614;28;20030;-80
2023/09/05 11:33:27;;;;;;;1.75;1.10;;;25.00;78.60;;;;;;5040659;28;20033;-77
2023/09/05 11:35:53;;;;;;;1.70;1.08;;;25.00;78.40;;;;;;5044919;28;20076;-78
2023/09/05 11:38:26;;;;;;;2.17;1.45;;;25.00;77.80;;;;;;5034462;28;20105;-79
2023/09/05 11:40:57;;;;;;;1.20;1.10;;;25.10;76.70;;;;;;5033023;28;20018;-80
2023/09/05 11:43:33;;;;;;;3.55;2.03;;;25.20;76.10;;;;;;5029501;28;20492;-75
2023/09/05 11:45:59;;;;;;;2.70;1.52;;;25.30;78.30;;;;;;5031220;28;20413;-75
2023/09/05 11:48:30;;;;;;;2.03;1.00;;;25.30;78.10;;;;;;5025808;28;20710;-76
2023/09/05 11:50:56;;;;;;;1.35;1.10;;;25.30;76.20;;;;;;5027057;28;20026;-77
2023/09/05 11:53:23;;;;;;;1.20;1.02;;;25.40;75.20;;;;;;5033617;28;20021;-75
2023/09/05 11:55:51;;;;;;;3.30;1.33;;;25.40;75.00;;;;;;5032932;28;20388;-72
2023/09/05 11:58:19;;;;;;;1.75;1.10;;;25.40;74.50;;;;;;5030742;28;20030;-75
2023/09/05 12:00:50;;;;;;;10.50;1.60;;;25.50;74.50;;;;;;5029702;28;20024;-78
2023/09/05 12:03:17;;;;;;;1.15;0.70;;;25.50;74.60;;;;;;5034105;28;20508;-78
2023/09/05 12:05:48;;;;;;;4.13;1.10;;;25.50;74.00;;;;;;5032523;28;20022;-78
2023/09/05 12:08:17;;;;;;;2.95;1.23;;;25.50;75.40;;;;;;5036084;28;20618;-78
2023/09/05 12:10:51;;;;;;;2.60;0.90;;;25.60;73.60;;;;;;5030979;28;20035;-77
2023/09/05 12:13:17;;;;;;;2.00;1.10;;;25.70;74.00;;;;;;5032492;28;20029;-79
2023/09/05 12:15:46;;;;;;;1.70;0.82;;;25.70;73.80;;;;;;5041149;28;20163;-78
2023/09/05 12:18:22;;;;;;;1.58;1.33;;;25.70;73.70;;;;;;5034880;28;20029;-79
2023/09/05 12:21:00;;;;;;;2.40;0.88;;;25.70;77.20;;;;;;5032671;28;20049;-78
2023/09/05 12:23:34;;;;;;;1.77;1.00;;;25.70;75.00;;;;;;5049835;28;20030;-79
2023/09/05 12:26:18;;;;;;;1.88;1.00;;;25.80;75.80;;;;;;5036570;28;20033;-79
2023/09/05 12:28:53;;;;;;;2.83;1.23;;;25.80;74.40;;;;;;5037599;28;20037;-77
2023/09/05 12:31:21;;;;;;;2.63;1.35;;;25.90;76.30;;;;;;5038997;28;20032;-77
2023/09/05 12:33:49;;;;;;;1.10;0.93;;;25.80;76.40;;;;;;5035810;28;20033;-78
2023/09/05 12:36:21;;;;;;;1.38;0.85;;;25.80;76.00;;;;;;5036408;28;20052;-79
2023/09/05 12:38:47;;;;;;;2.08;1.10;;;25.80;74.90;;;;;;5036990;28;20021;-79
2023/09/05 12:41:13;;;;;;;1.48;1.10;;;25.90;74.50;;;;;;5042047;28;20173;-75
2023/09/05 12:43:38;;;;;;;4.60;1.23;;;25.90;73.80;;;;;;5032342;28;20009;-75
2023/09/05 12:46:04;;;;;;;2.25;1.30;;;26.00;74.50;;;;;;5035467;28;20035;-75
2023/09/05 12:48:30;;;;;;;2.63;1.40;;;25.90;74.90;;;;;;5035422;28;20033;-75
2023/09/05 12:50:55;;;;;;;1.73;1.10;;;25.90;75.60;;;;;;5027581;28;20084;-74
2023/09/05 12:53:21;;;;;;;2.35;0.80;;;25.90;75.00;;;;;;5029834;28;20030;-80
2023/09/05 12:55:48;;;;;;;1.00;0.85;;;26.00;74.00;;;;;;5037570;28;20097;-82